createdAt,value
2019-03-29T00:00:08.782Z,96.40
2019-03-29T00:01:18.384Z,96.48
2019-03-29T00:02:22.876Z,96.49
2019-03-29T00:03:27.337Z,96.44
2019-03-29T00:04:32.124Z,96.26
2019-03-29T00:05:36.587Z,96.23
2019-03-29T00:06:41.050Z,96.27
2019-03-29T00:07:45.866Z,96.33
2019-03-29T00:08:50.323Z,96.41
2019-03-29T00:09:54.993Z,96.42
2019-03-29T00:10:59.446Z,96.45
2019-03-29T00:12:04.846Z,96.48
2019-03-29T00:13:09.962Z,96.52
2019-03-29T00:14:15.238Z,96.60
2019-03-29T00:15:20.273Z,96.60
2019-03-29T00:16:25.896Z,96.61
2019-03-29T00:17:30.906Z,96.60
2019-03-29T00:18:36.111Z,96.72
2019-03-29T00:19:41.131Z,96.79
2019-03-29T00:20:46.442Z,96.86
2019-03-29T00:21:51.901Z,96.92
2019-03-29T00:22:57.021Z,96.82
2019-03-29T00:24:06.906Z,96.80
2019-03-29T00:25:08.321Z,96.84
2019-03-29T00:26:12.781Z,96.88
2019-03-29T00:27:17.244Z,96.77
2019-03-29T00:28:21.723Z,96.79
2019-03-29T00:29:26.193Z,96.79
2019-03-29T00:30:30.653Z,96.75
2019-03-29T00:31:35.120Z,96.70
2019-03-29T00:32:41.543Z,96.66
2019-03-29T00:33:47.581Z,96.61
2019-03-29T00:34:52.065Z,96.57
2019-03-29T00:35:56.536Z,96.52
2019-03-29T00:37:00.991Z,96.49
2019-03-29T00:38:05.472Z,96.56
2019-03-29T00:39:09.938Z,96.59
2019-03-29T00:40:14.855Z,96.54
2019-03-29T00:41:19.616Z,96.52
2019-03-29T00:42:24.080Z,96.51
2019-03-29T00:43:28.570Z,96.57
2019-03-29T00:44:33.029Z,96.53
2019-03-29T00:45:37.831Z,96.46
2019-03-29T00:46:42.289Z,96.42
2019-03-29T00:47:46.772Z,96.42
2019-03-29T00:48:51.236Z,96.49
2019-03-29T00:49:55.699Z,96.48
2019-03-29T00:51:00.157Z,96.48
2019-03-29T00:52:04.630Z,96.51
2019-03-29T00:53:09.359Z,96.55
2019-03-29T00:54:13.857Z,96.57
2019-03-29T00:55:18.319Z,96.62
2019-03-29T00:56:23.056Z,96.67
2019-03-29T00:57:27.523Z,96.65
2019-03-29T00:58:32.004Z,96.69
2019-03-29T00:59:36.806Z,96.57
2019-03-29T01:00:41.271Z,96.62
2019-03-29T01:01:46.165Z,96.68
2019-03-29T01:02:50.630Z,96.75
2019-03-29T01:03:55.459Z,96.77
2019-03-29T01:04:59.916Z,96.81
2019-03-29T01:06:04.549Z,96.80
2019-03-29T01:07:08.985Z,96.77
2019-03-29T01:08:13.464Z,96.82
2019-03-29T01:09:18.230Z,96.92
2019-03-29T01:10:23.128Z,96.95
2019-03-29T01:11:27.744Z,96.98
2019-03-29T01:12:32.858Z,96.96
2019-03-29T01:13:37.373Z,97.02
2019-03-29T01:14:42.879Z,96.98
2019-03-29T01:15:47.367Z,96.93
2019-03-29T01:16:51.829Z,96.96
2019-03-29T01:17:57.368Z,96.92
2019-03-29T01:19:01.853Z,96.93
2019-03-29T01:20:07.968Z,96.95
2019-03-29T01:21:13.344Z,96.95
2019-03-29T01:22:18.557Z,96.90
2019-03-29T01:23:24.014Z,96.66
2019-03-29T01:24:28.585Z,96.61
2019-03-29T01:25:33.046Z,96.63
2019-03-29T01:26:37.803Z,96.60
2019-03-29T01:27:42.619Z,96.63
2019-03-29T01:28:47.392Z,96.51
2019-03-29T01:29:52.155Z,96.16
2019-03-29T01:30:56.617Z,96.16
2019-03-29T01:32:01.079Z,96.54
2019-03-29T01:33:05.544Z,96.63
2019-03-29T01:34:10.490Z,96.74
2019-03-29T01:35:15.016Z,96.65
2019-03-29T01:36:19.768Z,96.56
2019-03-29T01:37:25.301Z,96.45
2019-03-29T01:38:29.760Z,96.42
2019-03-29T01:39:34.246Z,96.36
2019-03-29T01:40:38.704Z,96.33
2019-03-29T01:41:43.574Z,96.34
2019-03-29T01:42:48.044Z,96.35
2019-03-29T01:43:52.819Z,96.45
2019-03-29T01:44:57.622Z,96.27
2019-03-29T01:46:02.089Z,96.16
2019-03-29T01:47:06.917Z,96.34
2019-03-29T01:48:11.384Z,96.41
2019-03-29T01:49:16.032Z,96.61
2019-03-29T01:50:20.807Z,96.74
2019-03-29T01:51:25.267Z,96.79
2019-03-29T01:52:31.606Z,96.87
2019-03-29T01:53:35.888Z,97.00
2019-03-29T01:54:40.368Z,97.00
2019-03-29T01:55:44.826Z,96.73
2019-03-29T01:56:49.292Z,96.63
2019-03-29T01:57:53.757Z,96.66
2019-03-29T01:58:58.245Z,96.76
2019-03-29T02:00:02.705Z,96.76
2019-03-29T02:01:08.328Z,96.76
2019-03-29T02:02:12.791Z,96.78
2019-03-29T02:03:17.577Z,96.82
2019-03-29T02:04:22.396Z,96.88
2019-03-29T02:05:27.705Z,96.99
2019-03-29T02:06:32.204Z,97.21
2019-03-29T02:07:38.072Z,97.29
2019-03-29T02:08:42.676Z,97.38
2019-03-29T02:09:47.164Z,97.38
2019-03-29T02:10:51.927Z,97.35
2019-03-29T02:11:56.744Z,97.30
2019-03-29T02:13:01.206Z,97.35
2019-03-29T02:14:05.687Z,97.36
2019-03-29T02:15:10.320Z,97.37
2019-03-29T02:16:14.939Z,97.42
2019-03-29T02:17:19.397Z,97.36
2019-03-29T02:18:23.861Z,97.33
2019-03-29T02:19:28.351Z,97.37
2019-03-29T02:20:32.814Z,97.37
2019-03-29T02:21:37.574Z,97.42
2019-03-29T02:22:42.068Z,97.37
2019-03-29T02:23:46.567Z,97.52
2019-03-29T02:24:51.027Z,97.57
2019-03-29T02:25:55.490Z,97.53
2019-03-29T02:27:00.978Z,97.52
2019-03-29T02:28:05.785Z,97.53
2019-03-29T02:29:11.010Z,97.53
2019-03-29T02:30:16.332Z,97.55
2019-03-29T02:31:25.231Z,97.63
2019-03-29T02:32:26.953Z,97.63
2019-03-29T02:33:31.453Z,97.70
2019-03-29T02:34:35.907Z,97.85
2019-03-29T02:35:40.371Z,97.85
2019-03-29T02:36:44.836Z,97.76
2019-03-29T02:37:49.305Z,97.67
2019-03-29T02:38:55.946Z,97.69
2019-03-29T02:40:00.686Z,97.67
2019-03-29T02:41:05.164Z,97.80
2019-03-29T02:42:09.626Z,97.70
2019-03-29T02:43:14.158Z,97.67
2019-03-29T02:44:18.624Z,97.57
2019-03-29T02:45:23.344Z,97.47
2019-03-29T02:46:27.879Z,97.52
2019-03-29T02:47:32.340Z,97.54
2019-03-29T02:48:37.235Z,97.50
2019-03-29T02:49:41.711Z,97.55
2019-03-29T02:50:46.174Z,97.57
2019-03-29T02:51:50.644Z,97.70
2019-03-29T02:52:55.514Z,97.66
2019-03-29T02:54:00.028Z,97.67
2019-03-29T02:55:06.429Z,97.40
2019-03-29T02:56:10.918Z,96.97
2019-03-29T02:57:15.376Z,96.97
2019-03-29T02:58:19.878Z,97.23
2019-03-29T02:59:24.344Z,97.04
2019-03-29T03:00:28.817Z,96.99
2019-03-29T03:01:33.444Z,97.00
2019-03-29T03:02:37.976Z,96.87
2019-03-29T03:03:42.475Z,96.89
2019-03-29T03:04:47.236Z,96.90
2019-03-29T03:05:51.698Z,96.91
2019-03-29T03:06:56.163Z,97.07
2019-03-29T03:08:00.637Z,97.07
2019-03-29T03:09:13.818Z,97.17
2019-03-29T03:10:13.226Z,97.22
2019-03-29T03:11:17.748Z,97.20
2019-03-29T03:12:22.579Z,97.25
2019-03-29T03:13:27.043Z,97.19
2019-03-29T03:14:31.543Z,97.28
2019-03-29T03:15:36.032Z,97.25
2019-03-29T03:16:40.821Z,97.25
2019-03-29T03:17:45.362Z,97.26
2019-03-29T03:18:49.822Z,97.46
2019-03-29T03:19:54.280Z,97.46
2019-03-29T03:20:58.740Z,97.46
2019-03-29T03:22:03.202Z,97.24
2019-03-29T03:23:07.993Z,97.35
2019-03-29T03:24:12.451Z,97.35
2019-03-29T03:25:16.918Z,97.15
2019-03-29T03:26:21.379Z,97.21
2019-03-29T03:27:25.938Z,97.03
2019-03-29T03:28:30.435Z,97.01
2019-03-29T03:29:34.862Z,97.13
2019-03-29T03:30:39.674Z,97.47
2019-03-29T03:31:44.152Z,97.34
2019-03-29T03:32:49.605Z,97.26
2019-03-29T03:33:54.446Z,97.08
2019-03-29T03:34:58.914Z,97.03
2019-03-29T03:36:03.381Z,97.07
2019-03-29T03:37:07.842Z,97.01
2019-03-29T03:38:12.348Z,97.02
2019-03-29T03:39:30.589Z,96.94
2019-03-29T03:40:22.954Z,96.83
2019-03-29T03:41:27.495Z,96.87
2019-03-29T03:42:31.978Z,96.90
2019-03-29T03:43:36.438Z,96.93
2019-03-29T03:44:40.903Z,97.09
2019-03-29T03:45:45.374Z,97.03
2019-03-29T03:46:49.844Z,96.98
2019-03-29T03:47:54.657Z,96.94
2019-03-29T03:48:59.394Z,96.94
2019-03-29T03:50:04.333Z,96.92
2019-03-29T03:51:08.861Z,96.97
2019-03-29T03:52:13.393Z,96.97
2019-03-29T03:53:17.889Z,96.98
2019-03-29T03:54:22.818Z,96.98
2019-03-29T03:55:27.815Z,96.93
2019-03-29T03:56:32.518Z,96.93
2019-03-29T03:57:38.858Z,97.02
2019-03-29T03:58:44.921Z,96.92
2019-03-29T03:59:50.630Z,96.93
2019-03-29T04:00:58.964Z,96.87
2019-03-29T04:02:03.752Z,96.84
2019-03-29T04:03:08.248Z,96.85
2019-03-29T04:04:12.710Z,96.87
2019-03-29T04:05:17.198Z,97.37
2019-03-29T04:06:21.640Z,97.37
2019-03-29T04:07:26.108Z,96.96
2019-03-29T04:08:30.674Z,96.98
2019-03-29T04:09:48.490Z,96.86
2019-03-29T04:10:42.262Z,96.90
2019-03-29T04:11:46.937Z,96.96
2019-03-29T04:12:51.438Z,96.88
2019-03-29T04:13:55.900Z,96.88
2019-03-29T04:15:00.761Z,96.90
2019-03-29T04:16:05.229Z,96.85
2019-03-29T04:17:09.872Z,97.13
2019-03-29T04:18:16.010Z,97.13
2019-03-29T04:19:20.528Z,96.94
2019-03-29T04:20:24.993Z,96.99
2019-03-29T04:21:29.456Z,96.93
2019-03-29T04:22:33.931Z,96.84
2019-03-29T04:23:38.429Z,96.83
2019-03-29T04:24:42.897Z,96.91
2019-03-29T04:25:47.437Z,96.92
2019-03-29T04:26:53.474Z,96.92
2019-03-29T04:27:57.946Z,96.86
2019-03-29T04:29:04.587Z,96.79
2019-03-29T04:30:09.196Z,96.69
2019-03-29T04:31:13.661Z,96.67
2019-03-29T04:32:18.490Z,96.83
2019-03-29T04:33:23.118Z,96.91
2019-03-29T04:34:28.030Z,97.00
2019-03-29T04:35:32.502Z,96.98
2019-03-29T04:36:36.983Z,96.95
2019-03-29T04:37:41.427Z,96.92
2019-03-29T04:38:46.286Z,96.92
2019-03-29T04:40:06.375Z,97.11
2019-03-29T04:40:56.926Z,97.11
2019-03-29T04:42:01.398Z,97.04
2019-03-29T04:43:05.873Z,97.01
2019-03-29T04:44:10.380Z,97.00
2019-03-29T04:45:14.984Z,97.03
2019-03-29T04:46:19.456Z,97.05
2019-03-29T04:47:24.227Z,97.12
2019-03-29T04:48:28.725Z,97.22
2019-03-29T04:49:33.558Z,97.29
2019-03-29T04:50:38.034Z,97.23
2019-03-29T04:51:42.502Z,97.22
2019-03-29T04:52:47.008Z,96.96
2019-03-29T04:53:52.483Z,96.96
2019-03-29T04:54:56.942Z,97.24
2019-03-29T04:56:01.743Z,97.32
2019-03-29T04:57:06.593Z,97.25
2019-03-29T04:58:11.353Z,97.25
2019-03-29T04:59:16.223Z,97.33
2019-03-29T05:00:20.848Z,97.33
2019-03-29T05:01:25.641Z,97.02
2019-03-29T05:02:31.220Z,96.98
2019-03-29T05:03:35.693Z,96.96
2019-03-29T05:04:40.161Z,96.91
2019-03-29T05:05:44.626Z,96.93
2019-03-29T05:06:49.173Z,96.93
2019-03-29T05:07:54.639Z,96.90
2019-03-29T05:08:59.104Z,96.82
2019-03-29T05:10:19.996Z,96.76
2019-03-29T05:11:11.096Z,96.62
2019-03-29T05:12:16.033Z,96.69
2019-03-29T05:13:20.823Z,96.75
2019-03-29T05:14:25.298Z,96.73
2019-03-29T05:15:29.765Z,96.61
2019-03-29T05:16:34.779Z,96.55
2019-03-29T05:17:39.286Z,96.54
2019-03-29T05:18:43.760Z,96.49
2019-03-29T05:19:48.263Z,96.40
2019-03-29T05:20:53.040Z,96.42
2019-03-29T05:21:57.500Z,96.32
2019-03-29T05:23:02.444Z,95.82
2019-03-29T05:24:07.944Z,95.82
2019-03-29T05:25:13.674Z,96.15
2019-03-29T05:26:18.148Z,96.46
2019-03-29T05:27:22.675Z,96.46
2019-03-29T05:28:27.136Z,96.36
2019-03-29T05:29:31.757Z,96.33
2019-03-29T05:30:36.225Z,96.34
2019-03-29T05:31:44.022Z,96.25
2019-03-29T05:32:48.526Z,96.24
2019-03-29T05:33:52.997Z,96.24
2019-03-29T05:34:57.467Z,95.91
2019-03-29T05:36:01.941Z,95.87
2019-03-29T05:37:06.423Z,95.91
2019-03-29T05:38:11.370Z,95.82
2019-03-29T05:39:15.831Z,95.88
2019-03-29T05:40:33.965Z,95.60
2019-03-29T05:41:34.792Z,95.60
2019-03-29T05:42:39.294Z,95.73
2019-03-29T05:43:43.763Z,95.64
2019-03-29T05:44:48.221Z,95.63
2019-03-29T05:45:52.686Z,95.70
2019-03-29T05:46:57.151Z,95.70
2019-03-29T05:48:01.942Z,95.50
2019-03-29T05:49:06.403Z,95.50
2019-03-29T05:50:11.210Z,95.71
2019-03-29T05:51:15.963Z,95.64
2019-03-29T05:52:20.828Z,95.68
2019-03-29T05:53:25.283Z,95.64
2019-03-29T05:54:30.038Z,95.58
2019-03-29T05:55:34.505Z,95.18
2019-03-29T05:56:38.977Z,95.18
2019-03-29T05:57:43.467Z,95.36
2019-03-29T05:58:47.936Z,95.31
2019-03-29T05:59:52.692Z,95.27
2019-03-29T06:00:57.147Z,95.34
2019-03-29T06:02:01.609Z,95.30
2019-03-29T06:03:09.809Z,95.23
2019-03-29T06:04:13.019Z,95.23
2019-03-29T06:05:17.797Z,95.10
2019-03-29T06:06:22.268Z,94.93
2019-03-29T06:07:27.727Z,94.99
2019-03-29T06:08:33.275Z,94.96
2019-03-29T06:09:37.735Z,95.01
2019-03-29T06:10:49.069Z,94.91
2019-03-29T06:11:48.500Z,95.18
2019-03-29T06:12:52.992Z,95.18
2019-03-29T06:13:57.784Z,94.80
2019-03-29T06:15:02.248Z,94.65
2019-03-29T06:16:06.718Z,94.74
2019-03-29T06:17:11.178Z,94.64
2019-03-29T06:18:15.675Z,94.55
2019-03-29T06:19:20.165Z,94.42
2019-03-29T06:20:24.629Z,94.35
2019-03-29T06:21:29.092Z,94.02
2019-03-29T06:22:33.591Z,94.02
2019-03-29T06:23:38.048Z,94.33
2019-03-29T06:24:42.835Z,94.37
2019-03-29T06:25:47.628Z,94.23
2019-03-29T06:26:52.099Z,94.53
2019-03-29T06:27:56.602Z,94.53
2019-03-29T06:29:01.051Z,94.48
2019-03-29T06:30:07.454Z,94.47
2019-03-29T06:31:11.988Z,94.50
2019-03-29T06:32:16.455Z,94.36
2019-03-29T06:33:20.944Z,94.36
2019-03-29T06:34:25.704Z,94.15
2019-03-29T06:35:33.069Z,94.17
2019-03-29T06:36:38.469Z,94.19
2019-03-29T06:37:44.591Z,94.06
2019-03-29T06:38:51.242Z,94.10
2019-03-29T06:39:56.831Z,93.86
2019-03-29T06:41:03.113Z,93.86
2019-03-29T06:42:08.448Z,93.62
2019-03-29T06:43:13.246Z,93.58
2019-03-29T06:44:18.065Z,93.33
2019-03-29T06:45:22.820Z,93.02
2019-03-29T06:46:27.605Z,92.34
2019-03-29T06:47:32.071Z,92.72
2019-03-29T06:48:36.569Z,92.66
2019-03-29T06:49:41.042Z,92.66
2019-03-29T06:50:46.803Z,92.71
2019-03-29T06:51:51.229Z,93.17
2019-03-29T06:52:56.013Z,93.17
2019-03-29T06:54:00.511Z,92.94
2019-03-29T06:55:05.828Z,92.46
2019-03-29T06:56:10.588Z,92.46
2019-03-29T06:57:15.388Z,92.52
2019-03-29T06:58:19.892Z,92.71
2019-03-29T06:59:24.393Z,92.75
2019-03-29T07:00:28.881Z,92.80
2019-03-29T07:01:34.610Z,92.70
2019-03-29T07:02:39.076Z,92.58
2019-03-29T07:03:43.583Z,92.46
2019-03-29T07:04:48.408Z,92.16
2019-03-29T07:05:52.881Z,91.30
2019-03-29T07:06:57.345Z,91.30
2019-03-29T07:08:01.815Z,91.73
2019-03-29T07:09:07.523Z,91.40
2019-03-29T07:10:12.405Z,91.57
2019-03-29T07:11:18.084Z,91.54
2019-03-29T07:12:22.783Z,90.97
2019-03-29T07:13:27.261Z,90.96
2019-03-29T07:14:31.764Z,90.16
2019-03-29T07:15:36.235Z,89.79
2019-03-29T07:16:42.046Z,89.79
2019-03-29T07:17:46.513Z,90.65
2019-03-29T07:18:51.014Z,90.65
2019-03-29T07:19:55.773Z,89.87
2019-03-29T07:21:00.243Z,89.83
2019-03-29T07:22:04.718Z,90.08
2019-03-29T07:23:09.180Z,89.84
2019-03-29T07:24:13.683Z,89.75
2019-03-29T07:25:19.413Z,89.67
2019-03-29T07:26:23.895Z,88.87
2019-03-29T07:27:28.365Z,89.68
2019-03-29T07:28:32.832Z,89.23
2019-03-29T07:29:37.315Z,89.34
2019-03-29T07:30:41.955Z,88.84
2019-03-29T07:31:46.733Z,89.00
2019-03-29T07:32:51.212Z,89.42
2019-03-29T07:33:55.679Z,89.23
2019-03-29T07:35:00.496Z,88.70
2019-03-29T07:36:04.969Z,88.70
2019-03-29T07:37:09.437Z,88.07
2019-03-29T07:38:13.900Z,88.30
2019-03-29T07:39:18.753Z,88.89
2019-03-29T07:40:23.243Z,87.95
2019-03-29T07:41:32.257Z,87.70
2019-03-29T07:42:33.879Z,88.10
2019-03-29T07:43:38.344Z,88.46
2019-03-29T07:44:42.813Z,88.54
2019-03-29T07:45:47.301Z,88.41
2019-03-29T07:46:51.765Z,88.38
2019-03-29T07:47:56.240Z,88.99
2019-03-29T07:49:01.105Z,88.96
2019-03-29T07:50:07.321Z,88.94
2019-03-29T07:51:11.785Z,88.52
2019-03-29T07:52:17.224Z,88.99
2019-03-29T07:53:22.021Z,88.71
2019-03-29T07:54:26.494Z,87.72
2019-03-29T07:55:30.982Z,87.90
2019-03-29T07:56:35.447Z,87.99
2019-03-29T07:57:39.921Z,88.36
2019-03-29T07:58:44.386Z,88.51
2019-03-29T07:59:48.847Z,88.06
2019-03-29T08:00:53.332Z,87.84
2019-03-29T08:01:57.808Z,88.16
2019-03-29T08:03:02.277Z,88.54
2019-03-29T08:04:06.744Z,88.54
2019-03-29T08:05:11.651Z,88.60
2019-03-29T08:06:16.137Z,88.46
2019-03-29T08:07:27.313Z,88.47
2019-03-29T08:08:32.344Z,87.66
2019-03-29T08:09:33.304Z,87.80
2019-03-29T08:10:37.774Z,87.63
2019-03-29T08:11:46.401Z,87.54
2019-03-29T08:12:49.416Z,87.49
2019-03-29T08:13:54.306Z,87.37
2019-03-29T08:14:59.024Z,87.43
2019-03-29T08:16:06.586Z,87.33
2019-03-29T08:17:09.849Z,87.96
2019-03-29T08:18:14.316Z,86.86
2019-03-29T08:19:18.783Z,85.53
2019-03-29T08:20:39.163Z,85.74
2019-03-29T08:21:29.934Z,85.96
2019-03-29T08:22:34.409Z,85.70
2019-03-29T08:23:40.249Z,85.51
2019-03-29T08:24:44.893Z,85.89
2019-03-29T08:25:49.361Z,85.56
2019-03-29T08:26:54.202Z,85.67
2019-03-29T08:27:58.956Z,85.74
2019-03-29T08:29:03.424Z,85.03
2019-03-29T08:30:08.028Z,85.67
2019-03-29T08:31:12.498Z,85.42
2019-03-29T08:32:16.985Z,85.51
2019-03-29T08:33:21.459Z,85.50
2019-03-29T08:34:26.300Z,85.95
2019-03-29T08:35:30.839Z,86.08
2019-03-29T08:36:36.657Z,85.37
2019-03-29T08:37:41.137Z,85.53
2019-03-29T08:38:45.989Z,84.89
2019-03-29T08:39:50.458Z,84.56
2019-03-29T08:40:55.324Z,83.78
2019-03-29T08:42:00.730Z,83.75
2019-03-29T08:43:06.468Z,83.83
2019-03-29T08:44:11.990Z,83.31
2019-03-29T08:45:17.579Z,82.60
2019-03-29T08:46:22.051Z,82.41
2019-03-29T08:47:26.537Z,83.03
2019-03-29T08:48:31.006Z,83.67
2019-03-29T08:49:35.476Z,83.36
2019-03-29T08:50:39.943Z,83.86
2019-03-29T08:51:44.745Z,83.49
2019-03-29T08:52:49.233Z,82.96
2019-03-29T08:53:53.711Z,83.23
2019-03-29T08:54:58.524Z,82.98
2019-03-29T08:56:02.999Z,83.30
2019-03-29T08:57:10.447Z,82.92
2019-03-29T08:58:13.658Z,82.34
2019-03-29T08:59:18.121Z,81.89
2019-03-29T09:00:32.956Z,82.37
2019-03-29T09:01:38.597Z,82.13
2019-03-29T09:02:43.391Z,82.71
2019-03-29T09:04:02.658Z,82.05
2019-03-29T09:04:54.197Z,82.02
2019-03-29T09:05:58.973Z,81.91
2019-03-29T09:07:03.448Z,81.31
2019-03-29T09:08:07.932Z,81.66
2019-03-29T09:09:12.469Z,81.85
2019-03-29T09:10:27.643Z,81.52
2019-03-29T09:11:32.466Z,81.60
2019-03-29T09:12:36.962Z,81.28
2019-03-29T09:13:41.420Z,80.53
2019-03-29T09:14:45.890Z,79.78
2019-03-29T09:15:50.752Z,80.19
2019-03-29T09:16:55.214Z,80.39
2019-03-29T09:18:00.123Z,79.54
2019-03-29T09:19:04.887Z,78.88
2019-03-29T09:20:10.726Z,77.78
2019-03-29T09:21:15.673Z,77.29
2019-03-29T09:22:20.142Z,77.16
2019-03-29T09:23:24.629Z,77.48
2019-03-29T09:24:29.096Z,78.11
2019-03-29T09:25:33.568Z,77.79
2019-03-29T09:26:38.032Z,78.41
2019-03-29T09:27:42.580Z,77.31
2019-03-29T09:28:47.365Z,77.60
2019-03-29T09:29:52.177Z,77.46
2019-03-29T09:30:56.899Z,77.39
2019-03-29T09:32:01.490Z,76.81
2019-03-29T09:33:05.975Z,76.29
2019-03-29T09:34:10.449Z,76.09
2019-03-29T09:35:14.915Z,76.31
2019-03-29T09:36:19.624Z,76.00
2019-03-29T09:37:24.117Z,75.72
2019-03-29T09:38:28.577Z,75.69
2019-03-29T09:39:33.049Z,75.06
2019-03-29T09:40:37.515Z,73.91
2019-03-29T09:41:41.991Z,74.83
2019-03-29T09:42:46.749Z,74.54
2019-03-29T09:43:54.098Z,75.32
2019-03-29T09:44:57.544Z,75.46
2019-03-29T09:46:03.468Z,75.99
2019-03-29T09:47:08.160Z,75.37
2019-03-29T09:48:12.632Z,74.41
2019-03-29T09:49:17.134Z,74.79
2019-03-29T09:50:23.088Z,73.19
2019-03-29T09:51:28.158Z,73.56
2019-03-29T09:52:32.621Z,74.92
2019-03-29T09:53:37.108Z,72.33
2019-03-29T09:54:41.573Z,71.51
2019-03-29T09:55:46.074Z,71.12
2019-03-29T09:56:50.512Z,71.06
2019-03-29T09:57:54.981Z,70.78
2019-03-29T09:58:59.489Z,71.01
2019-03-29T10:00:18.118Z,71.32
2019-03-29T10:01:12.790Z,71.51
2019-03-29T10:02:17.524Z,71.82
2019-03-29T10:03:22.328Z,72.02
2019-03-29T10:04:27.121Z,71.62
2019-03-29T10:05:31.821Z,71.57
2019-03-29T10:06:37.606Z,72.21
2019-03-29T10:07:42.065Z,71.86
2019-03-29T10:08:46.597Z,70.59
2019-03-29T10:09:52.037Z,70.48
2019-03-29T10:10:56.501Z,70.56
2019-03-29T10:12:00.969Z,69.25
2019-03-29T10:13:06.512Z,70.18
2019-03-29T10:14:11.002Z,70.97
2019-03-29T10:15:15.550Z,71.37
2019-03-29T10:16:20.345Z,71.07
2019-03-29T10:17:24.810Z,71.80
2019-03-29T10:18:29.684Z,71.72
2019-03-29T10:19:34.460Z,71.65
2019-03-29T10:20:38.932Z,70.75
2019-03-29T10:21:43.431Z,71.37
2019-03-29T10:22:48.872Z,72.95
2019-03-29T10:23:53.412Z,72.32
2019-03-29T10:25:02.174Z,71.96
2019-03-29T10:26:05.825Z,72.88
2019-03-29T10:27:10.295Z,71.20
2019-03-29T10:28:15.103Z,71.81
2019-03-29T10:29:19.601Z,71.23
2019-03-29T10:30:46.894Z,71.96
2019-03-29T10:31:50.744Z,71.92
2019-03-29T10:32:55.605Z,72.15
2019-03-29T10:34:00.402Z,72.50
2019-03-29T10:35:06.237Z,72.84
2019-03-29T10:36:10.702Z,72.82
2019-03-29T10:37:15.494Z,72.66
2019-03-29T10:38:19.963Z,73.72
2019-03-29T10:39:26.343Z,73.46
2019-03-29T10:40:30.616Z,72.15
2019-03-29T10:41:37.984Z,72.58
2019-03-29T10:42:41.256Z,72.11
2019-03-29T10:43:46.699Z,72.68
2019-03-29T10:44:51.469Z,73.25
2019-03-29T10:45:55.939Z,72.21
2019-03-29T10:47:04.945Z,71.90
2019-03-29T10:48:09.824Z,71.95
2019-03-29T10:49:14.309Z,71.95
2019-03-29T10:50:18.802Z,72.25
2019-03-29T10:51:23.272Z,72.12
2019-03-29T10:52:27.745Z,71.90
2019-03-29T10:53:33.180Z,71.58
2019-03-29T10:54:37.987Z,71.60
2019-03-29T10:55:42.837Z,71.83
2019-03-29T10:56:47.306Z,71.47
2019-03-29T10:57:51.767Z,70.34
2019-03-29T10:58:56.237Z,70.52
2019-03-29T11:00:00.728Z,70.95
2019-03-29T11:01:05.912Z,69.84
2019-03-29T11:02:10.445Z,69.86
2019-03-29T11:03:15.329Z,70.45
2019-03-29T11:04:20.078Z,70.56
2019-03-29T11:05:24.563Z,70.11
2019-03-29T11:06:29.033Z,70.33
2019-03-29T11:07:33.660Z,71.13
2019-03-29T11:08:38.294Z,71.35
2019-03-29T11:09:43.144Z,70.09
2019-03-29T11:10:47.624Z,70.30
2019-03-29T11:11:52.382Z,70.02
2019-03-29T11:13:11.363Z,70.44
2019-03-29T11:14:03.648Z,70.95
2019-03-29T11:15:08.671Z,71.58
2019-03-29T11:16:13.134Z,71.68
2019-03-29T11:17:17.600Z,72.00
2019-03-29T11:18:22.421Z,72.04
2019-03-29T11:19:26.889Z,71.17
2019-03-29T11:20:31.756Z,71.02
2019-03-29T11:21:36.233Z,71.25
2019-03-29T11:22:40.713Z,70.47
2019-03-29T11:23:45.171Z,69.88
2019-03-29T11:24:49.644Z,67.96
2019-03-29T11:25:55.286Z,66.94
2019-03-29T11:26:59.748Z,68.42
2019-03-29T11:28:04.286Z,67.01
2019-03-29T11:29:08.748Z,66.92
2019-03-29T11:30:13.209Z,66.25
2019-03-29T11:31:17.696Z,65.34
2019-03-29T11:32:22.153Z,65.27
2019-03-29T11:33:26.616Z,64.88
2019-03-29T11:34:31.075Z,63.38
2019-03-29T11:35:35.527Z,65.33
2019-03-29T11:36:40.008Z,64.13
2019-03-29T11:37:44.465Z,64.61
2019-03-29T11:38:48.920Z,65.29
2019-03-29T11:39:53.383Z,65.80
2019-03-29T11:40:57.867Z,65.49
2019-03-29T11:42:03.689Z,65.68
2019-03-29T11:43:08.639Z,65.88
2019-03-29T11:44:13.249Z,65.37
2019-03-29T11:45:17.711Z,64.52
2019-03-29T11:46:22.506Z,65.84
2019-03-29T11:47:26.955Z,64.98
2019-03-29T11:48:31.411Z,64.88
2019-03-29T11:49:35.866Z,63.96
2019-03-29T11:50:40.678Z,64.12
2019-03-29T11:51:45.474Z,64.14
2019-03-29T11:52:49.933Z,63.62
2019-03-29T11:53:54.398Z,63.77
2019-03-29T11:54:58.861Z,63.60
2019-03-29T11:56:03.333Z,63.08
2019-03-29T11:57:08.191Z,63.04
2019-03-29T11:58:12.714Z,63.59
2019-03-29T11:59:17.451Z,64.19
2019-03-29T12:00:24.953Z,63.21
2019-03-29T12:01:29.430Z,63.53
2019-03-29T12:02:34.167Z,64.13
2019-03-29T12:03:39.599Z,63.26
2019-03-29T12:04:44.091Z,63.24
2019-03-29T12:05:49.518Z,63.90
2019-03-29T12:06:53.997Z,64.26
2019-03-29T12:07:58.461Z,64.01
2019-03-29T12:09:02.931Z,63.92
2019-03-29T12:10:08.474Z,63.62
2019-03-29T12:11:13.016Z,63.30
2019-03-29T12:12:17.496Z,62.82
2019-03-29T12:13:21.957Z,63.00
2019-03-29T12:14:26.419Z,63.48
2019-03-29T12:15:30.881Z,63.73
2019-03-29T12:16:35.377Z,64.06
2019-03-29T12:17:39.898Z,64.07
2019-03-29T12:18:44.737Z,64.20
2019-03-29T12:19:50.165Z,63.57
2019-03-29T12:20:54.619Z,63.54
2019-03-29T12:21:59.383Z,63.50
2019-03-29T12:23:04.220Z,63.88
2019-03-29T12:24:08.690Z,64.05
2019-03-29T12:25:13.718Z,63.05
2019-03-29T12:26:18.180Z,63.65
2019-03-29T12:27:22.651Z,64.46
2019-03-29T12:28:27.407Z,65.02
2019-03-29T12:29:32.152Z,65.26
2019-03-29T12:30:37.134Z,65.49
2019-03-29T12:31:41.620Z,65.43
2019-03-29T12:32:46.079Z,65.26
2019-03-29T12:33:50.558Z,65.76
2019-03-29T12:34:55.400Z,66.05
2019-03-29T12:36:02.540Z,65.77
2019-03-29T12:37:07.022Z,65.69
2019-03-29T12:38:11.643Z,66.00
2019-03-29T12:39:16.106Z,66.19
2019-03-29T12:40:20.571Z,66.96
2019-03-29T12:42:45.469Z,66.70
2019-03-29T12:43:55.949Z,66.06
2019-03-29T12:44:56.087Z,66.50
2019-03-29T12:46:00.546Z,65.75
2019-03-29T12:47:05.011Z,65.99
2019-03-29T12:48:09.491Z,66.79
2019-03-29T12:49:13.959Z,65.79
2019-03-29T12:50:18.743Z,65.35
2019-03-29T12:51:23.502Z,65.29
2019-03-29T12:52:28.299Z,64.87
2019-03-29T12:53:32.793Z,64.02
2019-03-29T12:54:37.632Z,63.74
2019-03-29T12:55:42.104Z,63.21
2019-03-29T12:56:46.572Z,63.83
2019-03-29T12:57:51.034Z,63.13
2019-03-29T12:58:55.518Z,63.02
2019-03-29T12:59:59.980Z,62.88
2019-03-29T13:01:04.453Z,61.99
2019-03-29T13:02:08.979Z,62.34
2019-03-29T13:03:13.607Z,62.50
2019-03-29T13:04:18.093Z,61.29
2019-03-29T13:05:23.040Z,61.52
2019-03-29T13:06:27.867Z,62.65
2019-03-29T13:07:32.809Z,61.31
2019-03-29T13:08:38.289Z,61.33
2019-03-29T13:09:42.750Z,60.69
2019-03-29T13:10:47.660Z,62.35
2019-03-29T13:11:52.119Z,62.90
2019-03-29T13:13:00.210Z,62.25
2019-03-29T13:14:10.131Z,61.72
2019-03-29T13:15:09.880Z,61.10
2019-03-29T13:16:14.633Z,62.18
2019-03-29T13:17:19.549Z,61.93
2019-03-29T13:18:24.976Z,62.36
2019-03-29T13:19:29.777Z,62.25
2019-03-29T13:20:34.238Z,61.92
2019-03-29T13:21:39.050Z,61.19
2019-03-29T13:22:43.850Z,61.04
2019-03-29T13:23:48.324Z,61.93
2019-03-29T13:24:52.788Z,61.60
2019-03-29T13:25:57.552Z,60.91
2019-03-29T13:27:02.015Z,61.23
2019-03-29T13:28:06.486Z,61.01
2019-03-29T13:29:10.972Z,61.21
2019-03-29T13:30:17.368Z,61.10
2019-03-29T13:31:22.843Z,60.64
2019-03-29T13:32:27.303Z,60.99
2019-03-29T13:33:31.766Z,61.02
2019-03-29T13:34:36.268Z,60.51
2019-03-29T13:35:40.731Z,60.68
2019-03-29T13:36:45.209Z,61.26
2019-03-29T13:37:49.662Z,61.74
2019-03-29T13:38:54.148Z,61.55
2019-03-29T13:39:58.904Z,62.01
2019-03-29T13:41:06.737Z,61.53
2019-03-29T13:42:09.527Z,62.47
2019-03-29T13:43:14.301Z,62.20
2019-03-29T13:44:24.489Z,63.02
2019-03-29T13:45:27.853Z,62.57
2019-03-29T13:46:31.437Z,61.88
2019-03-29T13:47:36.643Z,62.94
2019-03-29T13:48:41.107Z,63.08
2019-03-29T13:49:45.587Z,63.60
2019-03-29T13:50:50.051Z,62.73
2019-03-29T13:51:54.898Z,63.57
2019-03-29T13:52:59.356Z,62.17
2019-03-29T13:54:04.140Z,61.44
2019-03-29T13:55:08.932Z,62.31
2019-03-29T13:56:13.405Z,62.22